• Join FlightAware (Why Join?)
  • Login
  • US Flag 
07:03PM EDT


 

Airport Tracker/Info


-or-


 

Live Flight TrackerFlight Track Log ✈ EJA929 ✈ 28-Jul-2013 ✈ KABE - KMVY

Flight Track Log - Related Links

Times and Time Zones

All times are in EDT time to prevent confusion due to time zone crossing. See the EJA929 flight status page for this flight to view local times or setup timezone preferences in your user account.

Time Position Orientation Groundspeed Altitude Reporting Facility
EDT Latitude Longitude Course Direction KTS MPH feet Rate Location/Type
04:21PM 40.5786 -75.5719 93° East 247 284 6,000  Level New York Center
04:22PM 40.6003 -75.6500 290° West 266 306 8,000 1,980 Climbing New York Center
04:23PM 40.6769 -75.6117 21° North 205 236 9,900 1,500 Climbing New York Center
04:24PM 40.7586 -75.5489 30° Northeast 295 339 11,100 1,440 Climbing New York Center
04:25PM 40.8553 -75.4817 28° Northeast 360 414 12,900 1,860 Climbing New York Center
04:26PM 41.4595 -75.4667 North  Level FlightAware Approximate
04:26PM 40.9589 -75.4394 17° North 388 447 14,900  Level New York Center
04:27PM 41.4618 -75.3559 93° East  Level FlightAware Approximate
04:27PM 41.0778 -75.3869 18° North 396 456 16,800  Level New York Center
04:28PM 41.1881 -75.3339 20° North 416 479 17,000 60 Climbing New York Center
04:29PM 41.3067 -75.2811 18° North 432 497 17,000  Level New York Center
04:30PM 41.4189 -75.2306 19° North 453 521 17,000  Level New York Center
04:32PM 41.5522 -75.0006 52° Northeast 432 497 17,000  Level Boston Center
04:33PM 41.5808 -74.8464 76° East 427 491 17,000  Level Boston Center
04:34PM 41.6050 -74.6861 79° East 432 497 17,000  Level Boston Center
04:35PM 41.6286 -74.5369 78° East 427 491 17,000  Level Boston Center
04:36PM 41.6500 -74.3878 79° East 415 478 17,000  Level Boston Center
04:37PM 41.6692 -74.2436 80° East 408 470 17,000  Level Boston Center
04:38PM 41.6672 -74.1019 91° East 386 444 17,000  Level Boston Center
04:39PM 41.6667 -73.9769 90° East 381 438 17,000  Level Boston Center
04:40PM 41.6644 -73.8239 91° East 375 432 17,000  Level Boston Center
04:41PM 41.6578 -73.6906 94° East 383 441 17,000  Level Boston Center
04:42PM 41.6450 -73.5292 96° East 398 458 17,000  Level Boston Center
04:43PM 41.6358 -73.3872 95° East 417 480 17,000  Level Boston Center
04:44PM 41.6078 -73.2203 103° East 417 480 17,000  Level Boston Center
04:45PM 41.5775 -73.0811 106° East 422 486 17,000  Level Boston Center
04:46PM 41.5367 -72.9169 108° East 422 486 17,000  Level Boston Center
04:47PM 41.5058 -72.7839 107° East 422 486 17,000  Level Boston Center
04:48PM 41.4667 -72.6231 108° East 422 486 17,000  Level Boston Center
04:49PM 41.4356 -72.4928 108° East 417 480 17,000  Level Boston Center
04:50PM 41.3917 -72.3072 107° East 412 474 17,000  Level Boston Center
04:51PM 41.3581 -72.1608 107° East 404 465 17,100 -1,020 Climbing Boston Center
04:52PM 41.3347 -72.0117 102° East 404 465 15,000 -2,160 Descending Boston Center
04:53PM 41.3403 -71.8567 87° East 417 480 12,900 -1,920 Descending Boston Center
04:54PM 41.3497 -71.6989 85° East 423 487 11,100 -840 Descending Boston Center
04:56PM 41.3547 -71.5358 88° East 418 481 11,100  Level Boston Center
04:57PM 41.3639 -71.3781 86° East 397 457 11,100 -420 Level Boston Center
04:57PM 41.3689 -71.2592 87° East 343 395 10,300 -840 Descending Boston Center
04:58PM 41.3719 -71.1539 88° East 296 341 9,500 -660 Descending Boston Center
04:59PM 41.3769 -71.0597 86° East 261 300 9,000 -600 Descending Boston Center
05:01PM 41.3886 -70.9875 78° East 250 288 8,300 -1,320 Descending Boston Center
05:01PM 41.4269 -70.8869 63° Northeast 250 288 6,500 -1,440 Descending Boston Center
05:03PM 41.4592 -70.8058 62° Northeast 250 288 5,300 -1,320 Descending Boston Center
05:04PM 41.4950 -70.7081 64° Northeast 244 281 3,600 -1,440 Descending Boston Center
05:05PM 41.5169 -70.6408 66° East 231 266 2,400 -840 Descending Boston Center
05:06PM 41.5367 -70.5653 71° East 206 237 2,000 -180 Descending Boston Center
05:07PM 41.5022 -70.5081 129° Southeast 184 212 2,100  Climbing Boston Center
05:08PM 41.4569 -70.5400 208° Southwest 110 127 2,000 -600 Descending Boston Center
05:09PM 41.4264 -70.5769 222° Southwest 126 145 900 -720 Descending Boston Center
05:10PM 41.3956 -70.6000 209° Southwest 138 159 600 -300 Descending Boston Center
05:13PM 41.3833 -70.6000 North  Level FlightAware Approximate
05:20PM 41.3934 -70.6139 North  Level Estimated
05:21PM 41.3934 -70.6139 North  Level Estimated
05:22PM 41.3934 -70.6139 North  Level Estimated
05:23PM 41.3934 -70.6139 North  Level Estimated
05:24PM 41.3934 -70.6139 North  Level Estimated
05:25PM 41.3934 -70.6139 North  Level Estimated